East Boldon, United Kingdom
Current Conditions -  °F | °C
As of 6:20 PM on Friday 31 Oct 2014 (Local Time) from EGNT Reporting Station
Few Clouds Few Clouds  
Wind Chill: 17°   Ceiling: Unl
Heat Index: 17°   Visibility: 6mi
Dew Point: 13°   Wind: 9mph
Humidity: 77%   Direction: 170°S
Pressure: 29.74"   Gusts: NA
Location:  54.95°N, 1.42°W
Report Text: EGNT 311820Z 17008KT 140V210 9999 FEW025 17/13 Q1007
Loading
Personal Weather Stations






























Interactive Weather Map
Tropical Storm Tracking
New forecast layout! Learn more

10-Day Weather Forecast

Advertisements
Track Severe Weather on mobile